createdAt,value
2023-05-17T00:00:38.393Z,4.60
2023-05-17T00:03:16.817Z,4.40
2023-05-17T00:05:44.930Z,4.20
2023-05-17T00:08:13.336Z,4.00
2023-05-17T00:10:41.669Z,4.60
2023-05-17T00:13:09.684Z,4.90
2023-05-17T00:15:37.844Z,4.20
2023-05-17T00:18:06.315Z,3.50
2023-05-17T00:20:35.903Z,4.50
2023-05-17T00:23:04.272Z,3.80
2023-05-17T00:25:32.399Z,4.00
2023-05-17T00:28:01.022Z,3.80
2023-05-17T00:30:29.978Z,3.90
2023-05-17T00:32:58.204Z,3.60
2023-05-17T00:35:26.974Z,4.30
2023-05-17T00:37:55.971Z,3.70
2023-05-17T00:40:24.270Z,4.10
2023-05-17T00:42:52.549Z,4.50
2023-05-17T00:45:20.656Z,4.20
2023-05-17T00:47:48.796Z,4.50
2023-05-17T00:50:17.181Z,3.90
2023-05-17T00:52:48.601Z,3.70
2023-05-17T00:55:19.978Z,4.10
2023-05-17T00:57:48.956Z,5.50
2023-05-17T01:02:48.750Z,4.30
2023-05-17T01:05:17.459Z,4.30
2023-05-17T01:07:45.557Z,3.70
2023-05-17T01:10:16.249Z,4.40
2023-05-17T01:13:32.936Z,3.70
2023-05-17T01:16:09.241Z,4.40
2023-05-17T01:18:47.231Z,4.50
2023-05-17T01:21:36.251Z,4.10
2023-05-17T01:24:40.330Z,4.00
2023-05-17T01:27:19.829Z,4.40
2023-05-17T01:29:59.866Z,4.20
2023-05-17T01:32:28.587Z,4.90
2023-05-17T01:34:56.983Z,4.40
2023-05-17T01:37:37.733Z,4.70
2023-05-17T01:40:10.753Z,5.00
2023-05-17T01:42:42.818Z,4.50
2023-05-17T01:45:52.674Z,3.80
2023-05-17T01:48:24.362Z,3.70
2023-05-17T01:50:56.603Z,3.40
2023-05-17T01:53:37.948Z,3.80
2023-05-17T01:56:35.809Z,3.70
2023-05-17T01:59:07.488Z,3.50
2023-05-17T02:01:36.722Z,3.60
2023-05-17T02:04:05.039Z,4.10
2023-05-17T02:06:33.289Z,4.10
2023-05-17T02:09:03.032Z,3.60
2023-05-17T02:11:32.906Z,3.50
2023-05-17T02:14:01.214Z,3.50
2023-05-17T02:16:29.227Z,3.30
2023-05-17T02:18:57.540Z,4.40
2023-05-17T02:21:25.837Z,3.90
2023-05-17T02:23:53.967Z,3.90
2023-05-17T02:26:22.091Z,3.90
2023-05-17T02:28:50.060Z,3.60
2023-05-17T02:31:18.093Z,3.90
2023-05-17T02:33:46.355Z,3.80
2023-05-17T02:36:14.341Z,3.80
2023-05-17T02:38:42.501Z,3.80
2023-05-17T02:41:10.510Z,4.00
2023-05-17T02:43:38.556Z,3.00
2023-05-17T02:46:06.841Z,3.30
2023-05-17T02:48:34.935Z,5.00
2023-05-17T02:51:03.332Z,3.90
2023-05-17T02:53:31.396Z,3.30
2023-05-17T02:56:02.030Z,3.70
2023-05-17T02:58:30.411Z,3.30
2023-05-17T03:00:59.115Z,3.60
2023-05-17T03:03:27.704Z,3.90
2023-05-17T03:06:00.649Z,4.00
2023-05-17T03:08:29.165Z,4.10
2023-05-17T03:10:58.483Z,4.10
2023-05-17T03:13:26.571Z,4.50
2023-05-17T03:15:54.733Z,3.90
2023-05-17T03:18:23.153Z,4.00
2023-05-17T03:20:54.672Z,4.50
2023-05-17T03:23:22.995Z,4.00
2023-05-17T03:25:59.757Z,3.90
2023-05-17T03:28:30.918Z,3.60
2023-05-17T03:30:59.265Z,3.80
2023-05-17T03:33:30.662Z,3.90
2023-05-17T03:35:59.415Z,3.90
2023-05-17T03:38:27.739Z,4.10
2023-05-17T03:40:56.110Z,4.00
2023-05-17T03:43:24.320Z,4.20
2023-05-17T03:45:52.837Z,3.70
2023-05-17T03:48:20.942Z,4.10
2023-05-17T03:50:49.089Z,3.10
2023-05-17T03:53:17.290Z,3.90
2023-05-17T03:55:45.745Z,3.80
2023-05-17T03:58:14.350Z,3.40
2023-05-17T04:00:42.785Z,3.40
2023-05-17T04:03:14.037Z,3.30
2023-05-17T04:05:42.143Z,2.50
2023-05-17T04:08:10.482Z,2.80
2023-05-17T04:10:42.287Z,1.90
2023-05-17T04:13:12.784Z,2.10
2023-05-17T04:15:41.437Z,2.60
2023-05-17T04:18:10.164Z,2.00
2023-05-17T04:20:38.444Z,2.10
2023-05-17T04:23:07.016Z,2.40
2023-05-17T04:25:35.793Z,2.00
2023-05-17T04:28:04.197Z,2.50
2023-05-17T04:30:33.056Z,2.20
2023-05-17T04:33:01.692Z,2.50
2023-05-17T04:35:32.610Z,2.10
2023-05-17T04:38:01.106Z,2.10
2023-05-17T04:40:32.291Z,2.10
2023-05-17T04:43:00.928Z,2.40
2023-05-17T04:45:31.314Z,1.60
2023-05-17T04:47:59.742Z,2.10
2023-05-17T04:50:28.671Z,2.90
2023-05-17T04:52:59.700Z,2.00
2023-05-17T04:55:29.217Z,2.00
2023-05-17T04:58:00.759Z,1.80
2023-05-17T05:00:29.067Z,2.00
2023-05-17T05:03:01.636Z,1.90
2023-05-17T05:05:39.856Z,1.80
2023-05-17T05:08:09.952Z,1.90
2023-05-17T05:10:38.158Z,2.00
2023-05-17T05:13:06.775Z,2.20
2023-05-17T05:15:35.415Z,1.80
2023-05-17T05:18:06.629Z,1.70
2023-05-17T05:20:38.182Z,1.80
2023-05-17T05:23:07.726Z,1.90
2023-05-17T05:25:38.582Z,1.70
2023-05-17T05:28:23.353Z,1.90
2023-05-17T05:30:58.057Z,1.70
2023-05-17T05:33:36.470Z,1.70
2023-05-17T05:36:05.575Z,1.80
2023-05-17T05:38:37.379Z,1.80
2023-05-17T05:41:06.610Z,1.80
2023-05-17T05:44:07.105Z,1.70
2023-05-17T05:46:43.420Z,1.50
2023-05-17T05:49:26.241Z,1.90
2023-05-17T05:51:55.100Z,1.80
2023-05-17T05:54:26.487Z,1.80
2023-05-17T05:56:55.487Z,2.00
2023-05-17T05:59:30.922Z,1.60
2023-05-17T06:02:01.477Z,1.80
2023-05-17T06:04:41.180Z,1.90
2023-05-17T06:07:16.225Z,1.70
2023-05-17T06:09:44.542Z,2.10
2023-05-17T06:12:15.143Z,1.50
2023-05-17T06:15:04.540Z,1.90
2023-05-17T06:17:34.246Z,1.90
2023-05-17T06:20:02.611Z,1.90
2023-05-17T06:22:39.635Z,1.60
2023-05-17T06:25:08.299Z,2.10
2023-05-17T06:27:38.131Z,2.80
2023-05-17T06:30:10.041Z,1.60
2023-05-17T06:32:38.199Z,1.70
2023-05-17T06:35:07.255Z,1.80
2023-05-17T06:37:35.813Z,1.90
2023-05-17T06:40:15.047Z,1.70
2023-05-17T06:42:44.137Z,1.90
2023-05-17T06:45:14.257Z,1.70
2023-05-17T06:47:42.404Z,1.80
2023-05-17T06:50:11.297Z,1.80
2023-05-17T06:52:39.971Z,2.00
2023-05-17T06:55:09.495Z,2.00
2023-05-17T06:57:37.548Z,2.00
2023-05-17T07:00:10.409Z,1.90
2023-05-17T07:02:38.942Z,1.70
2023-05-17T07:05:07.889Z,1.90
2023-05-17T07:10:06.676Z,1.90
2023-05-17T07:12:34.920Z,1.90
2023-05-17T07:15:02.889Z,1.90
2023-05-17T07:17:34.561Z,2.10
2023-05-17T07:20:03.305Z,1.80
2023-05-17T07:22:31.832Z,2.00
2023-05-17T07:25:00.469Z,2.40
2023-05-17T07:27:28.879Z,2.40
2023-05-17T07:29:57.285Z,2.20
2023-05-17T07:32:25.663Z,2.00
2023-05-17T07:34:54.846Z,2.00
2023-05-17T07:37:25.995Z,2.10
2023-05-17T07:39:54.032Z,2.60
2023-05-17T07:42:27.210Z,2.00
2023-05-17T07:44:55.319Z,2.30
2023-05-17T07:47:23.705Z,1.90
2023-05-17T07:49:51.945Z,2.10
2023-05-17T07:52:20.274Z,2.30
2023-05-17T07:54:50.540Z,1.90
2023-05-17T07:57:21.409Z,2.10
2023-05-17T07:59:49.695Z,1.80
2023-05-17T08:02:22.961Z,2.20
2023-05-17T08:05:00.898Z,2.10
2023-05-17T08:07:29.198Z,2.00
2023-05-17T08:09:57.744Z,2.00
2023-05-17T08:12:26.187Z,2.00
2023-05-17T08:14:54.571Z,2.00
2023-05-17T08:17:22.769Z,2.10
2023-05-17T08:19:51.293Z,2.10
2023-05-17T08:22:19.554Z,2.10
2023-05-17T08:24:47.934Z,2.00
2023-05-17T08:27:17.184Z,2.00
2023-05-17T08:29:45.374Z,2.30
2023-05-17T08:32:13.960Z,1.90
2023-05-17T08:34:42.401Z,2.20
2023-05-17T08:37:10.576Z,2.10
2023-05-17T08:39:41.224Z,2.00
2023-05-17T08:42:10.091Z,2.20
2023-05-17T08:44:59.326Z,2.30
2023-05-17T08:47:39.450Z,1.80
2023-05-17T08:50:08.279Z,2.20
2023-05-17T08:52:37.719Z,2.00
2023-05-17T08:55:08.381Z,1.90
2023-05-17T08:57:40.465Z,1.90
2023-05-17T09:00:15.013Z,1.70
2023-05-17T09:02:44.338Z,1.90
2023-05-17T09:05:14.269Z,1.80
2023-05-17T09:07:45.057Z,2.00
2023-05-17T09:10:13.758Z,2.00
2023-05-17T09:12:42.530Z,1.90
2023-05-17T09:15:16.342Z,2.30
2023-05-17T09:17:56.202Z,2.10
2023-05-17T09:20:35.379Z,2.00
2023-05-17T09:23:04.523Z,2.20
2023-05-17T09:25:37.322Z,1.90
2023-05-17T09:28:13.854Z,2.30
2023-05-17T09:30:49.501Z,2.00
2023-05-17T09:33:21.664Z,2.10
2023-05-17T09:35:52.646Z,1.90
2023-05-17T09:38:41.371Z,1.80
2023-05-17T09:41:09.561Z,1.90
2023-05-17T09:43:45.424Z,1.70
2023-05-17T09:46:15.426Z,1.70
2023-05-17T09:48:45.760Z,2.00
2023-05-17T09:51:14.117Z,1.90
2023-05-17T09:53:42.535Z,1.90
2023-05-17T09:56:30.987Z,1.40
2023-05-17T09:59:02.405Z,1.90
2023-05-17T10:01:31.937Z,2.30
2023-05-17T10:04:23.392Z,2.00
2023-05-17T10:06:55.223Z,1.90
2023-05-17T10:09:23.738Z,2.00
2023-05-17T10:11:56.652Z,1.90
2023-05-17T10:14:32.074Z,2.30
2023-05-17T10:17:03.346Z,2.00
2023-05-17T10:19:32.723Z,1.60
2023-05-17T10:24:51.889Z,2.00
2023-05-17T10:27:23.064Z,1.60
2023-05-17T10:29:53.516Z,1.90
2023-05-17T10:32:27.317Z,1.90
2023-05-17T10:35:10.532Z,2.00
2023-05-17T10:37:41.688Z,1.90
2023-05-17T10:40:13.991Z,1.90
2023-05-17T10:42:46.862Z,1.70
2023-05-17T10:45:15.321Z,1.70
2023-05-17T10:50:21.709Z,1.90
2023-05-17T10:52:51.718Z,1.80
2023-05-17T10:55:22.557Z,1.70
2023-05-17T10:58:11.521Z,1.70
2023-05-17T11:00:41.827Z,1.80
2023-05-17T11:03:19.249Z,1.80
2023-05-17T11:06:13.120Z,2.00
2023-05-17T11:09:09.025Z,2.10
2023-05-17T11:11:37.413Z,1.80
2023-05-17T11:14:06.206Z,1.80
2023-05-17T11:19:12.329Z,1.80
2023-05-17T11:21:48.042Z,1.70
2023-05-17T11:24:22.298Z,1.90
2023-05-17T11:26:51.949Z,1.90
2023-05-17T11:29:20.482Z,1.70
2023-05-17T11:31:53.284Z,1.70
2023-05-17T11:34:25.127Z,1.70
2023-05-17T11:36:55.711Z,1.70
2023-05-17T11:39:25.476Z,1.60
2023-05-17T11:41:56.179Z,1.60
2023-05-17T11:44:34.050Z,1.80
2023-05-17T11:47:07.167Z,1.60
2023-05-17T11:49:38.813Z,1.80
2023-05-17T11:52:07.956Z,2.40
2023-05-17T11:54:40.511Z,2.10
2023-05-17T11:57:11.768Z,2.00
2023-05-17T11:59:40.216Z,1.90
2023-05-17T12:02:08.759Z,1.80
2023-05-17T12:04:39.089Z,1.90
2023-05-17T12:07:11.588Z,2.30
2023-05-17T12:09:40.900Z,2.00
2023-05-17T12:12:09.851Z,1.70
2023-05-17T12:14:38.422Z,2.00
2023-05-17T12:17:09.810Z,1.80
2023-05-17T12:19:38.306Z,1.80
2023-05-17T12:22:08.689Z,2.40
2023-05-17T12:24:39.016Z,2.20
2023-05-17T12:27:07.821Z,1.70
2023-05-17T12:32:06.637Z,2.00
2023-05-17T12:34:36.235Z,1.70
2023-05-17T12:39:33.474Z,1.60
2023-05-17T12:42:02.076Z,1.90
2023-05-17T12:44:41.288Z,2.10
2023-05-17T12:47:10.362Z,2.10
2023-05-17T12:49:39.691Z,1.80
2023-05-17T12:52:08.057Z,2.30
2023-05-17T12:54:36.338Z,2.10
2023-05-17T12:57:14.127Z,2.00
2023-05-17T12:59:53.304Z,2.10
2023-05-17T13:02:21.766Z,2.00
2023-05-17T13:04:50.080Z,2.00
2023-05-17T13:07:23.985Z,2.00
2023-05-17T13:09:52.553Z,2.10
2023-05-17T13:12:24.801Z,2.30
2023-05-17T13:14:54.993Z,1.90
2023-05-17T13:17:50.117Z,1.80
2023-05-17T13:20:18.687Z,2.00
2023-05-17T13:22:48.146Z,1.90
2023-05-17T13:25:16.594Z,2.30
2023-05-17T13:27:49.477Z,2.00
2023-05-17T13:30:20.437Z,1.80
2023-05-17T13:32:48.636Z,2.30
2023-05-17T13:35:17.085Z,2.10
2023-05-17T13:37:48.526Z,1.90
2023-05-17T13:40:16.826Z,2.10
2023-05-17T13:42:45.182Z,2.00
2023-05-17T13:45:14.215Z,2.00
2023-05-17T13:53:02.155Z,2.00
2023-05-17T13:55:54.197Z,1.80
2023-05-17T13:58:27.805Z,1.70
2023-05-17T14:00:59.403Z,2.30
2023-05-17T14:03:36.319Z,1.80
2023-05-17T14:06:05.134Z,1.70
2023-05-17T14:08:33.900Z,1.70
2023-05-17T14:11:11.362Z,1.80
2023-05-17T14:13:49.555Z,1.80
2023-05-17T14:16:17.989Z,1.90
2023-05-17T14:18:46.500Z,1.90
2023-05-17T14:21:14.838Z,1.70
2023-05-17T14:23:46.306Z,2.10
2023-05-17T14:26:14.697Z,2.00
2023-05-17T14:28:43.057Z,1.90
2023-05-17T14:31:11.385Z,2.40
2023-05-17T14:33:39.636Z,2.30
2023-05-17T14:36:08.168Z,2.10
2023-05-17T14:38:39.197Z,2.00
2023-05-17T14:41:07.629Z,2.00
2023-05-17T14:43:36.103Z,2.40
2023-05-17T14:46:06.981Z,2.20
2023-05-17T14:48:35.213Z,2.10
2023-05-17T14:51:04.305Z,1.90
2023-05-17T14:53:35.092Z,2.40
2023-05-17T14:56:03.295Z,2.30
2023-05-17T14:58:31.468Z,2.20
2023-05-17T15:01:04.996Z,2.10
2023-05-17T15:03:35.528Z,2.40
2023-05-17T15:06:07.483Z,2.40
2023-05-17T15:08:39.351Z,1.80
2023-05-17T15:11:07.784Z,2.00
2023-05-17T15:13:36.560Z,2.00
2023-05-17T15:16:07.276Z,2.00
2023-05-17T15:18:36.630Z,2.30
2023-05-17T15:21:05.582Z,2.00
2023-05-17T15:23:33.670Z,2.30
2023-05-17T15:26:01.852Z,2.20
2023-05-17T15:28:29.860Z,2.30
2023-05-17T15:31:02.580Z,2.30
2023-05-17T15:33:32.208Z,2.10
2023-05-17T15:36:00.618Z,2.20
2023-05-17T15:38:28.733Z,2.10
2023-05-17T15:41:07.578Z,2.20
2023-05-17T15:46:04.005Z,2.00
2023-05-17T15:48:32.363Z,2.10
2023-05-17T15:51:01.032Z,2.40
2023-05-17T15:53:30.616Z,2.40
2023-05-17T15:55:59.047Z,2.30
2023-05-17T15:58:33.228Z,2.20
2023-05-17T16:01:06.460Z,2.20
2023-05-17T16:03:35.023Z,2.20
2023-05-17T16:06:04.542Z,2.50
2023-05-17T16:08:33.354Z,2.20
2023-05-17T16:11:02.647Z,2.00
2023-05-17T16:13:31.398Z,2.20
2023-05-17T16:16:00.558Z,2.40
2023-05-17T16:18:36.610Z,2.00
2023-05-17T16:21:07.899Z,2.20
2023-05-17T16:23:36.098Z,2.20
2023-05-17T16:26:04.285Z,2.10
2023-05-17T16:28:32.992Z,2.20
2023-05-17T16:31:01.488Z,2.10
2023-05-17T16:33:29.554Z,1.80
2023-05-17T16:35:58.687Z,1.90
2023-05-17T16:38:26.943Z,2.60
2023-05-17T16:40:55.394Z,2.60
2023-05-17T16:43:23.494Z,2.50
2023-05-17T16:45:53.081Z,2.60
2023-05-17T16:48:21.476Z,2.30
2023-05-17T16:50:49.659Z,2.40
2023-05-17T16:53:17.875Z,2.20
2023-05-17T16:55:46.194Z,2.40
2023-05-17T16:58:14.416Z,2.60
2023-05-17T17:00:44.873Z,2.60
2023-05-17T17:03:13.205Z,2.80
2023-05-17T17:05:41.363Z,2.50
2023-05-17T17:08:09.710Z,2.60
2023-05-17T17:10:45.518Z,2.60
2023-05-17T17:13:13.779Z,3.00
2023-05-17T17:15:41.890Z,2.90
2023-05-17T17:18:11.833Z,2.60
2023-05-17T17:20:40.730Z,2.60
2023-05-17T17:23:09.422Z,2.80
2023-05-17T17:25:37.872Z,2.50
2023-05-17T17:28:06.757Z,2.60
2023-05-17T17:30:36.550Z,2.50
2023-05-17T17:33:07.525Z,2.50
2023-05-17T17:35:35.923Z,2.50
2023-05-17T17:38:04.387Z,2.50
2023-05-17T17:40:33.086Z,2.70
2023-05-17T17:43:04.221Z,3.00
2023-05-17T17:45:47.171Z,2.70
2023-05-17T17:48:15.433Z,2.50
2023-05-17T17:50:44.064Z,2.90
2023-05-17T17:53:12.501Z,3.00
2023-05-17T17:55:43.312Z,2.80
2023-05-17T17:58:11.811Z,2.70
2023-05-17T18:00:40.143Z,2.90
2023-05-17T18:03:08.518Z,3.00
2023-05-17T18:06:07.391Z,2.90
2023-05-17T18:08:38.373Z,2.50
2023-05-17T18:11:16.815Z,2.90
2023-05-17T18:14:08.234Z,2.20
2023-05-17T18:16:45.585Z,2.50
2023-05-17T18:19:23.182Z,2.60
2023-05-17T18:21:51.881Z,2.10
2023-05-17T18:24:32.353Z,2.40
2023-05-17T18:27:00.748Z,2.60
2023-05-17T18:29:28.804Z,2.60
2023-05-17T18:31:59.696Z,2.50
2023-05-17T18:34:28.810Z,2.50
2023-05-17T18:36:56.899Z,2.30
2023-05-17T18:39:25.391Z,2.20
2023-05-17T18:41:53.885Z,1.80
2023-05-17T18:44:22.167Z,2.10
2023-05-17T18:46:51.151Z,2.10
2023-05-17T18:49:21.238Z,2.00
2023-05-17T18:51:49.429Z,1.70
2023-05-17T18:54:17.699Z,1.60
2023-05-17T18:56:46.930Z,1.90
2023-05-17T19:01:43.992Z,1.40
2023-05-17T19:04:12.388Z,1.60
2023-05-17T19:06:42.381Z,1.60
2023-05-17T19:09:10.647Z,1.50
2023-05-17T19:11:38.814Z,2.20
2023-05-17T19:14:09.071Z,1.70
2023-05-17T19:16:37.417Z,1.60
2023-05-17T19:19:06.430Z,1.50
2023-05-17T19:21:34.841Z,1.40
2023-05-17T19:24:05.771Z,1.50
2023-05-17T19:26:34.111Z,1.40
2023-05-17T19:29:02.178Z,1.70
2023-05-17T19:31:30.192Z,1.50
2023-05-17T19:33:59.540Z,1.40
2023-05-17T19:36:28.252Z,1.80
2023-05-17T19:38:56.518Z,1.90
2023-05-17T19:41:24.998Z,1.50
2023-05-17T19:43:53.423Z,1.90
2023-05-17T19:46:21.925Z,1.60
2023-05-17T19:48:50.341Z,2.20
2023-05-17T19:51:18.855Z,1.80
2023-05-17T19:53:53.308Z,1.90
2023-05-17T19:56:24.392Z,1.80
2023-05-17T19:58:53.009Z,2.10
2023-05-17T20:01:21.853Z,1.60
2023-05-17T20:03:50.401Z,1.80
2023-05-17T20:06:18.827Z,2.00
2023-05-17T20:08:47.643Z,2.20
2023-05-17T20:13:44.625Z,1.90
2023-05-17T20:16:13.488Z,2.10
2023-05-17T20:21:19.659Z,2.10
2023-05-17T20:23:48.123Z,2.20
2023-05-17T20:26:25.766Z,2.30
2023-05-17T20:28:54.210Z,2.00
2023-05-17T20:31:22.544Z,2.30
2023-05-17T20:33:50.676Z,1.90
2023-05-17T20:36:19.529Z,2.10
2023-05-17T20:38:47.924Z,2.30
2023-05-17T20:41:16.614Z,2.20
2023-05-17T20:43:45.436Z,2.10
2023-05-17T20:46:14.158Z,2.00
2023-05-17T20:48:43.764Z,2.20
2023-05-17T20:51:12.696Z,2.00
2023-05-17T20:53:40.931Z,2.10
2023-05-17T20:56:09.554Z,2.20
2023-05-17T20:58:38.138Z,1.90
2023-05-17T21:01:08.978Z,2.10
2023-05-17T21:03:39.875Z,1.80
2023-05-17T21:06:09.217Z,2.10
2023-05-17T21:08:37.675Z,2.10
2023-05-17T21:11:05.997Z,2.10
2023-05-17T21:13:34.886Z,2.00
2023-05-17T21:16:12.037Z,2.10
2023-05-17T21:18:41.267Z,2.10
2023-05-17T21:21:09.595Z,2.20
2023-05-17T21:23:38.131Z,2.20
2023-05-17T21:26:15.666Z,2.00
2023-05-17T21:28:44.076Z,2.20
2023-05-17T21:31:23.982Z,2.50
2023-05-17T21:34:12.592Z,1.90
2023-05-17T21:36:41.102Z,1.90
2023-05-17T21:39:09.178Z,2.20
2023-05-17T21:41:37.686Z,2.20
2023-05-17T21:44:08.805Z,2.10
2023-05-17T21:46:37.004Z,2.10
2023-05-17T21:49:06.133Z,2.00
2023-05-17T21:51:47.013Z,2.40
2023-05-17T21:54:15.754Z,2.20
2023-05-17T21:56:44.061Z,2.50
2023-05-17T21:59:12.299Z,2.00
2023-05-17T22:01:41.107Z,1.80
2023-05-17T22:04:09.513Z,1.90
2023-05-17T22:06:37.594Z,2.00
2023-05-17T22:09:06.978Z,2.20
2023-05-17T22:11:38.425Z,2.00
2023-05-17T22:14:07.743Z,2.20
2023-05-17T22:19:06.036Z,2.10
2023-05-17T22:21:36.752Z,2.00
2023-05-17T22:24:05.648Z,2.40
2023-05-17T22:26:34.000Z,2.00
2023-05-17T22:29:02.167Z,2.60
2023-05-17T22:31:30.868Z,2.30
2023-05-17T22:33:59.323Z,2.70
2023-05-17T22:36:27.442Z,2.60
2023-05-17T22:38:56.719Z,2.60
2023-05-17T22:43:53.802Z,2.40
2023-05-17T22:46:22.857Z,2.50
2023-05-17T22:48:52.837Z,2.30
2023-05-17T22:51:22.463Z,2.30
2023-05-17T22:53:50.732Z,2.70
2023-05-17T22:56:18.766Z,2.40
2023-05-17T22:58:46.873Z,2.60
2023-05-17T23:01:15.196Z,2.30
2023-05-17T23:03:43.637Z,2.50
2023-05-17T23:06:11.774Z,2.50
2023-05-17T23:08:42.019Z,2.30
2023-05-17T23:11:10.334Z,2.30
2023-05-17T23:13:38.734Z,2.90
2023-05-17T23:16:07.834Z,2.70
2023-05-17T23:18:36.502Z,2.40
2023-05-17T23:21:04.905Z,2.70
2023-05-17T23:23:33.185Z,2.30
2023-05-17T23:26:01.351Z,2.60
2023-05-17T23:28:29.794Z,2.40
2023-05-17T23:31:03.239Z,2.30
2023-05-17T23:33:31.690Z,2.70
2023-05-17T23:36:00.288Z,2.10
2023-05-17T23:38:28.438Z,2.30
2023-05-17T23:40:58.423Z,2.30
2023-05-17T23:43:26.961Z,2.50
2023-05-17T23:45:55.209Z,2.70
2023-05-17T23:48:25.755Z,2.70
2023-05-17T23:50:54.181Z,2.30
2023-05-17T23:53:23.740Z,2.50
2023-05-17T23:55:52.047Z,2.80
2023-05-17T23:58:20.180Z,2.60
